This is the latest recevied weather packets stored in our database for station/object WX5RP. If no packets are shown the sender has not sent any weather packets the latest 10 day(s).
| Time | Temp. | Humidity | Pressure | Rain* | Wind** | Luminosity | Snow |
|---|---|---|---|---|---|---|---|
| 1777897516 | 3.33° C | 80% | 1012.6 hPa | 0 mm | - | 0 W/m² | - |
| 1777896916 | 3.33° C | 80% | 1012.6 hPa | 0 mm | - | 0 W/m² | - |
| 1777896316 | 3.33° C | 81% | 1013.2 hPa | 0 mm | - | 0 W/m² | - |
| 1777895716 | 2.78° C | 80% | 1013.2 hPa | 0 mm | - | 0 W/m² | - |
| 1777895116 | 2.78° C | 79% | 1013.5 hPa | 0 mm | - | 0 W/m² | - |
| 1777894516 | 3.89° C | 78% | 1013.1 hPa | 0 mm | - | 0 W/m² | - |
| 1777893916 | 3.89° C | 79% | 1013.2 hPa | 0 mm | - | 0 W/m² | - |
| 1777893316 | 4.44° C | 78% | 1013.5 hPa | 0 mm | - | 0 W/m² | - |
| 1777892716 | 4.44° C | 77% | 1012.8 hPa | 0 mm | - | 0 W/m² | - |
| 1777892116 | 5° C | 76% | 1012.4 hPa | 0 mm | - | 0 W/m² | - |
| 1777891516 | 5.56° C | 76% | 1012.7 hPa | 0 mm | - | 0 W/m² | - |
| 1777890916 | 5° C | 76% | 1013.1 hPa | 0 mm | - | 0 W/m² | - |
| 1777890316 | 5° C | 76% | 1012.9 hPa | 0 mm | - | 0 W/m² | - |
| 1777889715 | 5° C | 76% | 1012.9 hPa | 0 mm | - | 0 W/m² | - |
| 1777889117 | 5° C | 74% | 1013.4 hPa | 0 mm | - | 0 W/m² | - |
| 1777888516 | 5° C | 72% | 1013 hPa | 0 mm | - | 0 W/m² | - |
| 1777887916 | 6.67° C | 65% | 1013.3 hPa | 0 mm | - | 0 W/m² | - |
| 1777887315 | 8.89° C | 59% | 1012.9 hPa | 0 mm | - | 0 W/m² | - |
| 1777886715 | 8.33° C | 63% | 1012.8 hPa | 0 mm | - | 0 W/m² | - |
| 1777886115 | 7.22° C | 66% | 1012.2 hPa | 0 mm | - | 0 W/m² | - |
| 1777885515 | 8.89° C | 59% | 1013 hPa | 0 mm | - | 0 W/m² | - |
| 1777884915 | 8.89° C | 62% | 1013.3 hPa | 0 mm | - | 0 W/m² | - |
| 1777884315 | 9.44° C | 60% | 1013.3 hPa | 0 mm | - | 0 W/m² | - |
| 1777883715 | 8.89° C | 63% | 1013.6 hPa | 0 mm | - | 0 W/m² | - |
| 1777883117 | 10° C | 58% | 1013.6 hPa | 0 mm | - | 0 W/m² | - |
* Rain latest hour (hover to see other rain measurements)
** Current wind speed in m/s (hover to see current wind gust speed)